3B1 weather

Greenville Municipal Airport
Greenville, Maine, United States

Public forecast

Using degrees Fahrenheit for public forecast. Weather courtesy of forecast.io.

Closest aviation weather report (METAR) to Greenville Municipal Airport

Closest report is Millinocket Municipal Airport, 38.1 nm (70.5 km) ENE. Retrieved 2019/10/23 21:53 UTC (40 minutes ago):

KMLT 232153Z AUTO 30006KT 10SM SCT009 OVC055 09/08 A2979 RMK AO2 RAE46 SLP093 P0002 T00890078

Closest aviation forecast (TAF) to Greenville Municipal Airport

Closest forecast is Bangor International Airport, 49.9 nm (92.4 km) SE. Retrieved 2019/10/23 18:22 UTC (4 hours ago):

TAF KBGR 231720Z 2318/2418 31009KT 5SM -SHRA OVC006 FM232000 31010KT P6SM BKN012 FM232100 30008KT P6SM SCT060 FM241400 22006KT P6SM FEW150